Time;durP1;ratioP1;P1;durP2;ratioP2;P2;SDS_P1;SDS_P2;PMS_P1;PMS_P2;Temp;Humidity;BMP_temperature;BMP_pressure;BME280_temperature;BME280_humidity;BME280_pressure;Samples;Min_cycle;Max_cycle;Signal;HPM_P1;HPM_P2
2021/04/25 00:00:16;;;;;;;3.15;2.12;;;;;;;15.25;47.99;100080.65;1814916;78;21697;-71
2021/04/25 00:02:44;;;;;;;3.22;2.12;;;;;;;15.24;47.98;100082.99;1821299;78;21113;-71
2021/04/25 00:05:14;;;;;;;2.37;1.65;;;;;;;15.22;47.99;100085.03;1820038;78;21390;-73
2021/04/25 00:07:42;;;;;;;2.55;2.10;;;;;;;15.22;48.00;100081.02;1808471;78;21547;-73
2021/04/25 00:10:11;;;;;;;3.00;2.20;;;;;;;15.20;48.03;100078.56;1770823;78;21141;-74
2021/04/25 00:12:42;;;;;;;3.12;2.12;;;;;;;15.19;48.03;100072.88;1819097;78;21170;-72
2021/04/25 00:15:20;;;;;;;2.62;1.80;;;;;;;15.19;48.05;100072.05;1825821;78;21132;-73
2021/04/25 00:17:48;;;;;;;2.47;2.27;;;;;;;15.18;48.07;100077.07;1813134;78;21371;-73
2021/04/25 00:20:16;;;;;;;2.92;2.10;;;;;;;15.14;48.09;100069.44;1813944;78;21141;-74
2021/04/25 00:22:44;;;;;;;2.83;2.05;;;;;;;15.14;48.11;100069.44;1808629;78;21142;-72
2021/04/25 00:25:13;;;;;;;2.70;2.00;;;;;;;15.13;48.11;100061.59;1823462;78;21155;-73
2021/04/25 00:27:42;;;;;;;2.42;1.82;;;;;;;15.12;48.12;100063.94;1805073;78;21118;-74
2021/04/25 00:30:13;;;;;;;4.28;2.08;;;;;;;15.11;48.15;100060.44;1803664;78;21301;-73
2021/04/25 00:32:41;;;;;;;2.72;2.22;;;;;;;15.10;48.16;100057.95;1820507;78;21161;-73
2021/04/25 00:35:10;;;;;;;2.40;1.98;;;;;;;15.09;48.13;100061.66;1809851;78;21137;-73
2021/04/25 00:37:37;;;;;;;2.87;1.90;;;;;;;15.08;48.13;100060.81;1823206;78;21129;-74
2021/04/25 00:40:07;;;;;;;2.70;2.05;;;;;;;15.08;48.14;100056.80;1814225;78;21519;-72
2021/04/25 00:42:34;;;;;;;2.33;1.90;;;;;;;15.06;48.16;100057.49;1821897;78;21368;-73
2021/04/25 00:45:04;;;;;;;3.70;1.82;;;;;;;15.06;48.16;100058.02;1803009;78;22046;-73
2021/04/25 00:47:32;;;;;;;2.30;2.00;;;;;;;15.06;48.14;100061.51;1802002;78;21509;-74
2021/04/25 00:49:59;;;;;;;2.45;1.92;;;;;;;15.04;48.19;100055.52;1822974;78;21641;-72
2021/04/25 00:52:27;;;;;;;2.58;1.87;;;;;;;15.04;48.14;100050.69;1807624;78;21356;-73
2021/04/25 00:54:55;;;;;;;4.03;2.10;;;;;;;15.03;48.11;100052.55;1771029;79;21301;-73
2021/04/25 00:57:22;;;;;;;4.33;1.80;;;;;;;15.03;48.11;100047.19;1801351;78;21159;-73
2021/04/25 00:59:49;;;;;;;2.62;2.00;;;;;;;15.02;48.11;100044.70;1788096;78;21146;-74
2021/04/25 01:02:16;;;;;;;2.15;1.77;;;;;;;15.01;48.10;100041.69;1799234;79;21631;-73
2021/04/25 01:04:44;;;;;;;2.72;1.90;;;;;;;15.01;48.12;100035.00;1790387;79;21187;-72
2021/04/25 01:07:12;;;;;;;3.37;2.45;;;;;;;14.99;48.11;100033.87;1763840;79;21393;-73
2021/04/25 01:09:42;;;;;;;3.40;2.62;;;;;;;14.98;48.12;100034.06;1798203;79;21582;-73
2021/04/25 01:12:09;;;;;;;2.95;2.00;;;;;;;14.97;48.12;100041.27;1780318;79;21174;-72
2021/04/25 01:14:37;;;;;;;2.33;1.65;;;;;;;14.96;48.09;100032.09;1791231;79;21147;-73
2021/04/25 01:17:07;;;;;;;2.42;2.00;;;;;;;14.96;48.12;100029.41;1795059;78;21158;-73
2021/04/25 01:19:34;;;;;;;2.77;2.10;;;;;;;14.94;48.10;100023.73;1802284;79;21186;-73
2021/04/25 01:22:02;;;;;;;2.83;2.17;;;;;;;14.92;48.10;100028.44;1775873;79;21373;-73
2021/04/25 01:24:32;;;;;;;3.15;2.22;;;;;;;14.91;48.11;100024.61;1761978;79;21119;-73
2021/04/25 01:26:59;;;;;;;2.83;2.05;;;;;;;14.90;48.08;100021.12;1773020;79;21198;-72
2021/04/25 01:29:27;;;;;;;2.30;1.82;;;;;;;14.89;48.09;100017.28;1800241;79;21188;-73
2021/04/25 01:31:54;;;;;;;2.35;1.87;;;;;;;14.88;48.09;100023.16;1800376;79;21629;-72
2021/04/25 01:34:22;;;;;;;3.05;2.47;;;;;;;14.87;48.07;100017.98;1785440;79;21201;-73
2021/04/25 01:36:51;;;;;;;3.08;2.15;;;;;;;14.86;48.09;100023.03;1760054;79;21159;-73
2021/04/25 01:39:18;;;;;;;2.33;2.10;;;;;;;14.85;48.11;100016.83;1799713;79;21556;-74
2021/04/25 01:41:47;;;;;;;2.75;2.12;;;;;;;14.84;48.10;100014.38;1778426;79;21169;-71
2021/04/25 01:44:15;;;;;;;2.98;2.22;;;;;;;14.82;48.07;100009.20;1808324;79;21382;-73
2021/04/25 01:46:43;;;;;;;3.70;2.55;;;;;;;14.82;48.10;100007.05;1790787;79;21705;-72
2021/04/25 01:49:11;;;;;;;4.20;2.60;;;;;;;14.81;48.10;100005.38;1795794;79;21153;-72
2021/04/25 01:51:39;;;;;;;3.15;2.37;;;;;;;14.80;48.07;100004.55;1793987;78;21489;-71
2021/04/25 01:54:06;;;;;;;2.60;1.92;;;;;;;14.79;48.09;99998.05;1787248;79;21165;-72
2021/04/25 01:56:34;;;;;;;2.72;2.17;;;;;;;14.78;48.08;99995.89;1799721;79;21719;-72
2021/04/25 01:59:02;;;;;;;2.42;2.08;;;;;;;14.77;48.06;99997.41;1784943;78;21130;-72
2021/04/25 02:01:29;;;;;;;3.55;2.52;;;;;;;14.76;48.10;99993.92;1792034;79;21167;-71
2021/04/25 02:03:56;;;;;;;2.47;1.92;;;;;;;14.75;48.07;99997.59;1806824;79;21138;-71
2021/04/25 02:06:27;;;;;;;1.95;1.72;;;;;;;14.74;48.07;99990.61;1792523;78;22029;-73
2021/04/25 02:08:54;;;;;;;3.83;2.20;;;;;;;14.73;48.12;99995.63;1775113;79;21362;-72
2021/04/25 02:11:24;;;;;;;2.42;1.87;;;;;;;14.73;48.08;99999.63;1789123;78;21646;-72
2021/04/25 02:13:51;;;;;;;2.70;2.02;;;;;;;14.71;48.10;99994.47;1772867;79;21166;-72
2021/04/25 02:16:19;;;;;;;2.80;1.90;;;;;;;14.70;48.09;99991.49;1794290;79;21154;-72
2021/04/25 02:18:47;;;;;;;2.50;2.15;;;;;;;14.70;48.12;99990.67;1788875;79;21137;-69
2021/04/25 02:21:15;;;;;;;3.22;2.20;;;;;;;14.69;48.10;99993.83;1775741;79;21595;-69
2021/04/25 02:23:42;;;;;;;3.40;2.37;;;;;;;14.68;48.17;99990.85;1769391;79;21198;-69
2021/04/25 02:26:10;;;;;;;2.62;1.95;;;;;;;14.68;48.13;99984.66;1785056;79;21535;-71
2021/04/25 02:28:37;;;;;;;2.65;2.20;;;;;;;14.66;48.11;99984.87;1777915;79;21139;-70
2021/04/25 02:31:06;;;;;;;2.17;1.90;;;;;;;14.66;48.13;99989.36;1789168;78;21193;-69
2021/04/25 02:33:34;;;;;;;3.17;2.30;;;;;;;14.65;48.17;99993.89;1779535;79;21210;-68
2021/04/25 02:36:01;;;;;;;3.35;2.10;;;;;;;14.64;48.14;99989.58;1803268;78;21152;-68
2021/04/25 02:38:30;;;;;;;2.47;2.00;;;;;;;14.63;48.15;99985.75;1797140;79;21126;-71
2021/04/25 02:40:58;;;;;;;2.45;1.98;;;;;;;14.63;48.14;99971.05;1799478;78;21150;-69
2021/04/25 02:43:26;;;;;;;2.65;2.12;;;;;;;14.62;48.17;99982.26;1801227;79;21131;-69
2021/04/25 02:45:53;;;;;;;4.37;2.20;;;;;;;14.63;48.15;99979.89;1772373;79;21332;-69
2021/04/25 02:48:21;;;;;;;3.75;2.80;;;;;;;14.62;48.16;99974.23;1786013;79;21353;-69
2021/04/25 02:50:48;;;;;;;3.30;2.30;;;;;;;14.61;48.16;99973.90;1800585;79;21110;-68
2021/04/25 02:53:15;;;;;;;2.72;2.22;;;;;;;14.60;48.16;99976.23;1795073;78;21622;-68
2021/04/25 02:55:44;;;;;;;2.75;1.90;;;;;;;14.61;48.18;99975.23;1782522;78;21111;-68
2021/04/25 02:58:12;;;;;;;2.77;2.40;;;;;;;14.60;48.17;99968.22;1782576;79;21203;-69
2021/04/25 03:00:40;;;;;;;2.87;2.22;;;;;;;14.60;48.21;99978.09;1768976;79;21131;-70
2021/04/25 03:03:07;;;;;;;3.02;2.40;;;;;;;14.59;48.16;99979.95;1760654;79;21155;-69
2021/04/25 03:05:36;;;;;;;2.55;2.15;;;;;;;14.60;48.20;99972.75;1754683;79;21182;-69
2021/04/25 03:08:04;;;;;;;3.10;1.90;;;;;;;14.59;48.18;99977.27;1776839;79;21615;-69
2021/04/25 03:10:32;;;;;;;3.83;2.30;;;;;;;14.59;48.22;99979.95;1768806;79;21415;-71
2021/04/25 03:13:02;;;;;;;3.55;2.20;;;;;;;14.59;48.21;99986.63;1759828;79;21157;-69
2021/04/25 03:15:29;;;;;;;3.85;2.37;;;;;;;14.58;48.21;99986.30;1805948;79;21173;-69
2021/04/25 03:17:57;;;;;;;3.20;2.37;;;;;;;14.57;48.26;99984.66;1783346;79;21178;-70
2021/04/25 03:20:25;;;;;;;2.92;2.20;;;;;;;14.57;48.21;99981.16;1760801;79;21135;-71
2021/04/25 03:22:52;;;;;;;3.62;2.10;;;;;;;14.57;48.26;99973.96;1795722;79;21358;-69
2021/04/25 03:25:22;;;;;;;2.35;2.10;;;;;;;14.58;48.27;99976.12;1779656;79;22607;-70
2021/04/25 03:27:50;;;;;;;3.30;2.60;;;;;;;14.57;48.27;99976.63;1768930;79;21163;-69
2021/04/25 03:30:20;;;;;;;2.85;2.27;;;;;;;14.57;48.30;99969.95;1764374;79;21150;-69
2021/04/25 03:32:47;;;;;;;3.87;2.47;;;;;;;14.56;48.32;99974.93;1782443;79;21134;-70
2021/04/25 03:35:16;;;;;;;2.72;2.40;;;;;;;14.56;48.34;99970.92;1737436;80;21403;-69
2021/04/25 03:37:45;;;;;;;3.22;2.58;;;;;;;14.54;48.34;99971.63;1730870;81;21584;-71
2021/04/25 03:40:16;;;;;;;2.62;2.10;;;;;;;14.57;48.32;99975.30;1749796;81;21141;-70
2021/04/25 03:42:45;;;;;;;4.25;2.70;;;;;;;14.57;48.32;99979.31;1738028;81;21142;-68
2021/04/25 03:45:15;;;;;;;2.80;2.15;;;;;;;14.55;48.32;99971.44;1790355;79;21111;-69
2021/04/25 03:47:49;;;;;;;3.20;2.35;;;;;;;14.56;48.31;99974.93;1793417;79;21206;-70
2021/04/25 03:50:20;;;;;;;2.83;2.20;;;;;;;14.56;48.31;99969.59;1771569;79;21571;-70
2021/04/25 03:52:48;;;;;;;2.98;2.42;;;;;;;14.57;48.33;99971.80;1766920;79;21139;-70
2021/04/25 03:55:19;;;;;;;3.72;2.47;;;;;;;14.57;48.32;99973.96;1802480;79;21142;-69
2021/04/25 03:57:47;;;;;;;3.45;2.52;;;;;;;14.58;48.33;99972.11;1790676;79;21157;-68
2021/04/25 04:00:16;;;;;;;3.27;2.27;;;;;;;14.59;48.40;99964.42;1810192;77;21376;-71
2021/04/25 04:02:44;;;;;;;2.50;2.15;;;;;;;14.60;48.31;99970.89;1816879;78;21113;-69
2021/04/25 04:05:14;;;;;;;3.22;2.20;;;;;;;14.62;48.27;99969.38;1808917;78;21196;-69
2021/04/25 04:07:43;;;;;;;3.85;2.75;;;;;;;14.65;48.20;99967.67;1797983;78;21200;-70
2021/04/25 04:10:11;;;;;;;3.72;2.60;;;;;;;14.66;48.18;99970.16;1794434;78;21143;-70
2021/04/25 04:12:40;;;;;;;3.33;2.50;;;;;;;14.67;48.10;99959.77;1814447;78;21270;-70
2021/04/25 04:15:09;;;;;;;3.62;2.30;;;;;;;14.69;48.05;99960.41;1782939;79;21150;-69
2021/04/25 04:17:36;;;;;;;3.08;2.42;;;;;;;14.72;47.97;99960.04;1789321;79;21166;-70
2021/04/25 04:20:05;;;;;;;3.02;2.30;;;;;;;14.74;47.96;99958.52;1782189;79;21154;-69
2021/04/25 04:22:33;;;;;;;2.58;2.20;;;;;;;14.77;47.87;99965.33;1772260;79;21163;-70
2021/04/25 04:25:00;;;;;;;2.92;2.62;;;;;;;14.80;47.72;99962.28;1793600;79;21377;-71
2021/04/25 04:27:28;;;;;;;3.08;2.62;;;;;;;14.83;47.63;99965.38;1790236;79;21207;-69
2021/04/25 04:29:55;;;;;;;3.30;2.62;;;;;;;14.85;47.60;99966.02;1743782;81;21637;-69
2021/04/25 04:32:23;;;;;;;2.58;2.35;;;;;;;14.89;47.55;99961.11;1776594;79;21141;-70
2021/04/25 04:34:52;;;;;;;3.47;2.25;;;;;;;14.90;47.43;99960.93;1737521;81;21132;-70
2021/04/25 04:37:20;;;;;;;3.08;2.35;;;;;;;14.92;47.36;99956.73;1781003;79;21274;-69
2021/04/25 04:39:49;;;;;;;3.20;2.05;;;;;;;14.95;47.31;99955.03;1767452;80;21184;-70
2021/04/25 04:42:16;;;;;;;3.20;2.20;;;;;;;14.96;47.29;99966.03;1774389;79;21163;-69
2021/04/25 04:44:43;;;;;;;3.30;2.50;;;;;;;14.98;47.23;99963.17;1743342;81;21157;-70
2021/04/25 04:47:11;;;;;;;3.02;2.45;;;;;;;15.01;47.26;99971.64;1785173;79;21629;-70
2021/04/25 04:49:39;;;;;;;2.83;2.20;;;;;;;15.01;47.19;99972.98;1794122;79;21248;-70
2021/04/25 04:52:07;;;;;;;3.35;2.42;;;;;;;15.03;47.14;99970.94;1777266;79;21389;-69
2021/04/25 04:54:34;;;;;;;3.02;2.70;;;;;;;15.05;47.12;99968.90;1789337;79;21112;-69
2021/04/25 04:57:04;;;;;;;3.02;2.45;;;;;;;15.06;47.13;99967.86;1778368;79;21170;-71
2021/04/25 04:59:31;;;;;;;2.60;2.40;;;;;;;15.07;47.06;99976.22;1792212;79;21164;-70
2021/04/25 05:01:59;;;;;;;2.67;2.02;;;;;;;15.08;47.07;99975.19;1791027;79;21384;-69
2021/04/25 05:04:26;;;;;;;3.87;2.50;;;;;;;15.10;47.07;99975.00;1784069;79;21578;-70
2021/04/25 05:06:54;;;;;;;2.67;2.17;;;;;;;15.10;47.04;99978.53;1777465;79;21150;-71
2021/04/25 05:09:21;;;;;;;3.05;2.42;;;;;;;15.12;47.08;99980.50;1802880;79;21156;-67
2021/04/25 05:11:51;;;;;;;2.47;2.15;;;;;;;15.13;47.07;99992.84;1821014;77;21209;-68
2021/04/25 05:14:20;;;;;;;3.00;2.30;;;;;;;15.14;47.05;99985.63;1797539;79;21382;-69
2021/04/25 05:16:47;;;;;;;3.10;2.33;;;;;;;15.17;47.05;99981.77;1713581;82;21215;-69
2021/04/25 05:19:15;;;;;;;3.27;2.40;;;;;;;15.19;47.18;99977.05;1741879;80;21151;-68
2021/04/25 05:21:42;;;;;;;2.65;2.20;;;;;;;15.20;47.36;99979.54;1775578;79;21618;-69
2021/04/25 05:24:10;;;;;;;3.37;2.40;;;;;;;15.22;47.43;99978.84;1785642;79;21138;-69
2021/04/25 05:26:38;;;;;;;4.37;2.58;;;;;;;15.23;47.48;99979.66;1766421;79;21454;-69
2021/04/25 05:29:06;;;;;;;2.67;2.47;;;;;;;15.25;47.41;99969.59;1793058;79;21194;-67
2021/04/25 05:31:33;;;;;;;3.20;2.40;;;;;;;15.27;47.40;99971.03;1786996;79;21154;-70
2021/04/25 05:34:01;;;;;;;2.70;2.50;;;;;;;15.29;47.39;99968.17;1763388;79;21621;-71
2021/04/25 05:36:29;;;;;;;3.15;2.30;;;;;;;15.31;47.39;99975.50;1793920;78;21123;-68
2021/04/25 05:38:56;;;;;;;3.85;2.60;;;;;;;15.33;47.36;99972.11;1776931;79;22038;-69
2021/04/25 05:41:23;;;;;;;3.20;2.40;;;;;;;15.34;47.35;99973.78;1794933;79;21162;-70
2021/04/25 05:43:52;;;;;;;2.90;2.17;;;;;;;15.36;47.33;99977.09;1780533;79;21113;-70
2021/04/25 05:46:20;;;;;;;5.80;3.30;;;;;;;15.38;47.26;99973.71;1801816;79;21103;-70
2021/04/25 05:48:49;;;;;;;3.00;2.62;;;;;;;15.40;47.25;99974.34;1793388;78;21622;-71
2021/04/25 05:51:17;;;;;;;2.60;1.98;;;;;;;15.43;47.24;99974.45;1785673;79;22114;-71
2021/04/25 05:53:44;;;;;;;3.37;2.60;;;;;;;15.45;47.25;99969.73;1794072;79;21139;-71
2021/04/25 05:56:12;;;;;;;2.60;2.20;;;;;;;15.46;47.18;99970.88;1790909;79;21579;-70
2021/04/25 05:58:42;;;;;;;2.98;2.40;;;;;;;15.48;47.14;99967.50;1800102;79;21134;-71
2021/04/25 06:01:10;;;;;;;3.45;2.70;;;;;;;15.51;47.12;99968.95;1817408;78;21148;-72
2021/04/25 06:03:37;;;;;;;3.00;2.33;;;;;;;15.52;47.08;99971.44;1809956;78;21609;-72
2021/04/25 06:06:05;;;;;;;3.52;2.47;;;;;;;15.56;47.12;99969.20;1805229;78;21157;-69
2021/04/25 06:08:33;;;;;;;3.00;2.45;;;;;;;15.58;47.05;99972.52;1800773;78;21122;-70
2021/04/25 06:11:00;;;;;;;2.75;2.10;;;;;;;15.61;47.03;99969.98;1822153;78;21146;-69
2021/04/25 06:13:28;;;;;;;2.62;2.25;;;;;;;15.62;47.01;99972.44;1805753;78;21130;-70
2021/04/25 06:15:57;;;;;;;2.98;2.10;;;;;;;15.64;47.00;99980.28;1828367;78;22322;-72
2021/04/25 06:18:25;;;;;;;3.55;2.47;;;;;;;15.67;46.98;99976.70;1809517;78;21602;-69
2021/04/25 06:20:53;;;;;;;3.05;2.15;;;;;;;15.68;46.95;99974.36;1828144;78;21614;-69
2021/04/25 06:23:21;;;;;;;4.60;2.60;;;;;;;15.71;46.96;99971.78;1817400;78;21622;-69
2021/04/25 06:25:49;;;;;;;3.52;2.70;;;;;;;15.73;46.89;99969.77;1797047;78;21105;-72
2021/04/25 06:28:16;;;;;;;2.83;2.10;;;;;;;15.75;46.85;99972.26;1805879;78;21376;-70
2021/04/25 06:30:43;;;;;;;3.45;2.50;;;;;;;15.78;46.87;99966.00;1798407;78;21598;-72
2021/04/25 06:33:11;;;;;;;3.70;2.30;;;;;;;15.80;46.81;99968.45;1809699;78;21173;-70
2021/04/25 06:35:40;;;;;;;3.62;2.50;;;;;;;15.82;46.82;99960.56;1822140;78;21162;-70
2021/04/25 06:38:07;;;;;;;3.58;2.52;;;;;;;15.84;46.83;99957.66;1828198;78;21644;-70
2021/04/25 06:40:36;;;;;;;3.27;2.37;;;;;;;15.86;46.79;99959.14;1824375;78;21588;-70
2021/04/25 06:43:05;;;;;;;3.08;2.15;;;;;;;15.88;46.76;99965.13;1795511;78;21110;-70
2021/04/25 06:45:36;;;;;;;2.33;2.02;;;;;;;15.90;46.79;99959.05;1796851;78;21111;-70
2021/04/25 06:48:05;;;;;;;2.80;2.40;;;;;;;15.92;46.83;99951.64;1814888;78;21990;-69
2021/04/25 06:50:33;;;;;;;3.17;2.55;;;;;;;15.95;46.83;99951.75;1818817;78;21538;-69
2021/04/25 06:53:00;;;;;;;2.60;2.05;;;;;;;15.97;46.82;99940.32;1828277;78;21280;-69
2021/04/25 06:55:28;;;;;;;4.22;2.33;;;;;;;15.99;46.77;99938.79;1828465;78;21140;-68
2021/04/25 06:57:55;;;;;;;3.52;2.47;;;;;;;16.01;46.78;99945.63;1820062;78;21137;-69
2021/04/25 07:00:25;;;;;;;3.65;2.62;;;;;;;16.03;46.80;99952.10;1774768;78;22061;-69
2021/04/25 07:02:56;;;;;;;3.27;2.35;;;;;;;16.05;46.77;99962.95;1801105;79;21095;-70
2021/04/25 07:05:24;;;;;;;2.85;2.20;;;;;;;16.08;46.76;99963.06;1777518;79;21360;-68
2021/04/25 07:07:51;;;;;;;4.20;2.67;;;;;;;16.10;46.75;99961.02;1760879;79;21158;-69
2021/04/25 07:10:19;;;;;;;4.25;2.40;;;;;;;16.12;46.77;99973.17;1790332;79;21150;-68
2021/04/25 07:12:48;;;;;;;2.52;2.10;;;;;;;16.16;46.75;99973.61;1754621;79;21163;-69
2021/04/25 07:15:16;;;;;;;3.40;2.58;;;;;;;16.18;46.83;99967.53;1801287;79;21143;-71
2021/04/25 07:17:43;;;;;;;3.12;2.40;;;;;;;16.22;46.81;99980.03;1778628;79;21364;-68
2021/04/25 07:20:12;;;;;;;3.35;2.37;;;;;;;16.25;46.87;99972.94;1759869;79;21147;-68
2021/04/25 07:22:40;;;;;;;2.98;2.25;;;;;;;16.27;46.76;99969.02;1805086;79;21149;-68
2021/04/25 07:25:09;;;;;;;2.80;2.20;;;;;;;16.31;46.83;99970.27;1804175;79;21185;-69
2021/04/25 07:27:37;;;;;;;3.15;2.40;;;;;;;16.34;46.85;99983.81;1808525;79;21497;-70
2021/04/25 07:30:07;;;;;;;2.98;2.60;;;;;;;16.36;46.94;99965.67;1808436;79;21559;-68
2021/04/25 07:32:35;;;;;;;2.98;2.20;;;;;;;16.39;46.85;99965.25;1808453;79;21113;-68
2021/04/25 07:35:04;;;;;;;2.47;1.92;;;;;;;16.43;46.94;99967.02;1774563;79;21146;-69
2021/04/25 07:37:32;;;;;;;3.05;2.40;;;;;;;16.45;46.99;99963.63;1796065;79;21110;-68
2021/04/25 07:40:00;;;;;;;2.67;2.00;;;;;;;16.47;46.96;99964.25;1761602;79;21279;-70
2021/04/25 07:42:27;;;;;;;2.55;2.27;;;;;;;16.49;46.99;99968.38;1797761;79;21414;-69
2021/04/25 07:44:55;;;;;;;2.75;2.35;;;;;;;16.54;46.99;99966.97;1808343;79;21114;-68
2021/04/25 07:47:22;;;;;;;2.60;2.08;;;;;;;16.55;46.99;99960.04;1802565;79;21186;-69
2021/04/25 07:49:50;;;;;;;2.60;2.22;;;;;;;16.59;46.86;99961.31;1804236;79;21196;-68
2021/04/25 07:52:17;;;;;;;3.22;2.10;;;;;;;16.61;46.88;99962.43;1770328;79;21201;-69
2021/04/25 07:54:46;;;;;;;2.35;2.00;;;;;;;16.63;46.89;99965.24;1806313;79;21107;-68
2021/04/25 07:57:13;;;;;;;2.67;2.10;;;;;;;16.65;46.80;99972.58;1787846;78;21184;-69
2021/04/25 07:59:41;;;;;;;2.83;2.10;;;;;;;16.67;46.80;99976.40;1801958;78;21167;-68
2021/04/25 08:02:08;;;;;;;2.45;2.10;;;;;;;16.68;46.78;99974.83;1808346;78;21135;-67
2021/04/25 08:04:36;;;;;;;2.83;2.33;;;;;;;16.71;46.75;99966.91;1808385;79;21532;-69
2021/04/25 08:07:04;;;;;;;2.45;2.00;;;;;;;16.72;46.69;99965.87;1808341;79;21534;-70
2021/04/25 08:09:32;;;;;;;3.60;2.40;;;;;;;16.75;46.71;99959.30;1775445;79;21178;-68
2021/04/25 08:12:00;;;;;;;3.00;2.12;;;;;;;16.77;46.62;99952.69;1774110;79;21133;-68
2021/04/25 08:14:27;;;;;;;2.87;2.33;;;;;;;16.80;46.58;99949.58;1779690;79;21647;-70
2021/04/25 08:16:54;;;;;;;3.33;2.30;;;;;;;16.83;46.54;99946.53;1796818;79;21102;-68
2021/04/25 08:19:22;;;;;;;2.80;2.12;;;;;;;16.87;46.48;99943.74;1808354;78;21184;-69
2021/04/25 08:21:50;;;;;;;3.62;2.25;;;;;;;16.93;46.37;99944.78;1776609;78;21615;-68
2021/04/25 08:24:17;;;;;;;3.85;2.40;;;;;;;16.95;46.18;99937.36;1790144;79;21167;-68
2021/04/25 08:26:46;;;;;;;2.70;2.20;;;;;;;16.99;46.10;99943.96;1790068;78;21172;-68
2021/04/25 08:29:14;;;;;;;2.40;1.95;;;;;;;17.02;46.01;99944.91;1793367;79;21643;-69
2021/04/25 08:31:43;;;;;;;2.40;2.00;;;;;;;17.04;45.99;99936.13;1793063;78;21251;-68
2021/04/25 08:34:10;;;;;;;2.20;1.92;;;;;;;17.06;45.85;99935.41;1764128;79;21579;-70
2021/04/25 08:36:38;;;;;;;3.15;2.40;;;;;;;17.08;45.82;99930.66;1784863;79;21184;-69
2021/04/25 08:39:06;;;;;;;2.35;2.10;;;;;;;17.11;45.79;99930.75;1769013;80;21170;-70
2021/04/25 08:41:35;;;;;;;2.60;2.00;;;;;;;17.13;45.78;99931.38;1782700;79;21176;-67
2021/04/25 08:44:03;;;;;;;2.75;2.17;;;;;;;17.16;45.85;99936.86;1769092;79;22307;-69
2021/04/25 08:46:31;;;;;;;2.77;1.95;;;;;;;17.15;45.87;99934.67;1783645;79;21117;-68
2021/04/25 08:48:59;;;;;;;2.60;2.30;;;;;;;17.16;45.98;99937.68;1808259;79;21162;-69
2021/04/25 08:51:27;;;;;;;2.87;2.52;;;;;;;17.16;46.00;99931.50;1808300;78;21197;-68
2021/04/25 08:53:55;;;;;;;2.15;1.95;;;;;;;17.16;46.16;99927.47;1802782;79;21117;-68
2021/04/25 08:56:22;;;;;;;3.05;2.37;;;;;;;17.15;46.22;99937.36;1776412;79;21271;-68
2021/04/25 08:58:52;;;;;;;3.47;2.40;;;;;;;17.13;46.18;99935.92;1796105;78;21154;-68
2021/04/25 09:01:20;;;;;;;3.15;2.25;;;;;;;17.11;46.20;99934.78;1804214;78;21571;-68
2021/04/25 09:03:48;;;;;;;2.10;1.85;;;;;;;17.09;46.23;99928.30;1805738;79;21169;-69
2021/04/25 09:06:16;;;;;;;2.90;2.15;;;;;;;17.08;46.23;99933.34;1808431;79;21118;-68
2021/04/25 09:08:48;;;;;;;2.77;2.00;;;;;;;17.06;46.29;99927.36;1781970;79;21190;-68
2021/04/25 09:11:37;;;;;;;2.10;1.90;;;;;;;17.06;46.17;99924.67;1764246;79;21107;-68
2021/04/25 09:14:25;;;;;;;2.35;2.15;;;;;;;17.06;46.15;99926.54;1794023;79;21213;-72
2021/04/25 09:17:01;;;;;;;2.85;2.20;;;;;;;17.05;46.14;99931.05;1803303;79;21099;-72
2021/04/25 09:19:51;;;;;;;2.33;2.00;;;;;;;17.05;46.01;99927.03;1802496;79;21098;-72
2021/04/25 09:22:21;;;;;;;3.15;2.27;;;;;;;17.07;46.00;99918.29;1754871;79;21470;-71
2021/04/25 09:24:49;;;;;;;2.40;1.90;;;;;;;17.10;45.83;99920.54;1784241;79;21134;-71
2021/04/25 09:27:27;;;;;;;3.58;2.15;;;;;;;17.13;45.88;99918.47;1802405;78;21092;-72
2021/04/25 09:29:58;;;;;;;2.95;2.00;;;;;;;17.18;45.78;99914.66;1802391;79;21551;-73
2021/04/25 09:32:29;;;;;;;2.00;1.80;;;;;;;17.22;45.66;99914.55;1806729;78;21138;-73
2021/04/25 09:35:16;;;;;;;3.02;2.12;;;;;;;17.26;45.56;99914.45;1805939;79;21352;-71
2021/04/25 09:37:46;;;;;;;2.33;1.90;;;;;;;17.30;45.47;99919.18;1808375;79;21121;-72
2021/04/25 09:40:24;;;;;;;2.10;1.90;;;;;;;17.36;45.37;99910.81;1808352;79;21619;-73
2021/04/25 09:43:06;;;;;;;2.70;2.08;;;;;;;17.43;45.36;99905.45;1795288;79;21607;-73
2021/04/25 09:45:57;;;;;;;2.20;2.00;;;;;;;17.51;45.45;99895.00;1795067;79;21118;-73
2021/04/25 09:48:31;;;;;;;2.50;2.08;;;;;;;17.59;45.52;99895.59;1808441;79;21129;-72
2021/04/25 09:51:21;;;;;;;2.67;2.05;;;;;;;17.68;45.92;99902.39;1780562;79;21461;-73
2021/04/25 09:53:58;;;;;;;3.42;2.27;;;;;;;17.76;45.83;99906.72;1806516;79;21220;-74
2021/04/25 09:56:38;;;;;;;2.67;2.17;;;;;;;17.83;45.80;99888.72;1808108;79;21133;-76
2021/04/25 09:59:07;;;;;;;2.12;1.90;;;;;;;17.90;45.81;99894.61;1759097;79;21178;-73
2021/04/25 10:01:37;;;;;;;3.00;2.35;;;;;;;17.96;45.56;99887.03;1771527;78;21150;-73
2021/04/25 10:04:28;;;;;;;2.33;1.92;;;;;;;18.02;45.49;99884.83;1794842;79;21226;-73
2021/04/25 10:06:56;;;;;;;2.92;2.50;;;;;;;18.08;45.84;99883.48;1764143;79;21179;-72
2021/04/25 10:09:24;;;;;;;2.42;2.02;;;;;;;18.17;45.96;99884.57;1778941;78;21115;-73
2021/04/25 10:11:55;;;;;;;2.05;1.80;;;;;;;18.22;45.62;99879.39;1754794;79;21162;-68
2021/04/25 10:14:25;;;;;;;2.75;1.92;;;;;;;18.26;45.38;99881.42;1779796;79;21323;-68
2021/04/25 10:16:54;;;;;;;1.87;1.65;;;;;;;18.30;45.51;99881.00;1802374;79;21169;-70
2021/04/25 10:19:21;;;;;;;3.20;1.90;;;;;;;18.32;45.36;99886.45;1805485;79;21167;-73
2021/04/25 10:21:49;;;;;;;2.58;2.25;;;;;;;18.35;45.14;99876.63;1806963;79;21188;-75
2021/04/25 10:24:20;;;;;;;2.60;1.87;;;;;;;18.40;45.27;99877.31;1787369;79;21143;-73
2021/04/25 10:26:59;;;;;;;2.00;1.80;;;;;;;18.43;45.18;99875.02;1789836;79;21372;-72
2021/04/25 10:29:51;;;;;;;2.35;2.15;;;;;;;18.50;45.67;99880.34;1806532;78;21195;-73
2021/04/25 10:32:20;;;;;;;2.62;2.00;;;;;;;18.53;45.32;99874.55;1791516;77;21166;-68
2021/04/25 10:34:50;;;;;;;2.55;1.80;;;;;;;18.54;45.25;99880.21;1763086;79;21582;-70
2021/04/25 10:37:18;;;;;;;2.22;1.80;;;;;;;18.55;45.18;99877.84;1764093;79;21131;-70
2021/04/25 10:39:54;;;;;;;2.87;2.27;;;;;;;18.55;45.18;99879.19;1802256;79;22198;-70
2021/04/25 10:42:27;;;;;;;1.90;1.70;;;;;;;18.55;45.04;99877.84;1795729;79;21202;-69
2021/04/25 10:45:07;;;;;;;2.50;2.12;;;;;;;18.55;44.90;99877.84;1778200;79;21159;-72
2021/04/25 10:47:40;;;;;;;2.30;1.82;;;;;;;18.54;44.86;99879.39;1797157;79;21123;-72
2021/04/25 10:50:28;;;;;;;2.55;2.00;;;;;;;18.52;44.81;99876.91;1780419;79;21170;-72
2021/04/25 10:53:01;;;;;;;1.72;1.62;;;;;;;18.50;44.85;99873.62;1808211;79;21372;-72
2021/04/25 10:55:30;;;;;;;2.52;2.10;;;;;;;18.49;44.76;99869.30;1777569;79;21136;-72
2021/04/25 10:58:05;;;;;;;2.67;2.22;;;;;;;18.47;44.74;99871.37;1808126;79;21161;-72
2021/04/25 11:00:38;;;;;;;1.80;1.57;;;;;;;18.43;44.73;99868.30;1783361;79;21142;-74
2021/04/25 11:03:22;;;;;;;1.82;1.62;;;;;;;18.42;44.90;99877.39;1822028;78;21238;-73
2021/04/25 11:05:51;;;;;;;2.50;2.00;;;;;;;18.40;44.93;99875.97;1823145;78;21351;-72
2021/04/25 11:08:36;;;;;;;2.02;1.82;;;;;;;18.38;44.90;99866.77;1823047;78;21177;-69
2021/04/25 11:11:12;;;;;;;2.80;1.90;;;;;;;18.35;44.84;99869.91;1798086;78;21130;-71
2021/04/25 11:16:27;;;;;;;2.40;1.67;;;;;;;18.34;44.89;99874.14;1826969;75;28616;-70
2021/04/25 11:19:07;;;;;;;2.60;2.20;;;;;;;18.21;44.97;99884.44;1789153;78;21555;-70
2021/04/25 11:21:48;;;;;;;3.20;2.20;;;;;;;18.20;44.92;99884.97;1799290;78;22413;-69
2021/04/25 11:24:26;;;;;;;2.20;1.87;;;;;;;18.18;44.84;99883.02;1795287;78;21641;-69
2021/04/25 11:26:56;;;;;;;2.50;2.10;;;;;;;18.15;44.86;99892.84;1805689;79;21176;-69
2021/04/25 11:29:42;;;;;;;2.58;1.92;;;;;;;18.14;44.87;99884.98;1815545;78;21149;-69
2021/04/25 11:32:26;;;;;;;2.55;2.12;;;;;;;18.10;44.75;99884.62;1815135;78;21609;-69
2021/04/25 11:35:04;;;;;;;2.20;2.00;;;;;;;18.08;44.51;99881.31;1815519;79;21366;-71
2021/04/25 11:37:32;;;;;;;2.67;2.22;;;;;;;18.07;44.46;99882.34;1816403;78;21074;-72
2021/04/25 11:40:06;;;;;;;4.08;2.35;;;;;;;18.07;44.42;99874.28;1815961;78;21160;-73
2021/04/25 11:42:47;;;;;;;2.40;2.02;;;;;;;18.06;44.34;99882.88;1805989;78;21150;-73
2021/04/25 11:45:28;;;;;;;2.20;2.00;;;;;;;18.09;44.23;99884.30;1766050;79;21122;-72